Map

Track Data

SID SEASON NUMBER BASIN SUBBASIN NAME ISO_TIME NATURE LAT LON WMO_WIND WMO_PRES WMO_AGENCY TRACK_TYPE DIST2LAND LANDFALL IFLAG USA_AGENCY USA_ATCF_ID USA_LAT USA_LON USA_RECORD USA_STATUS USA_WIND USA_PRES USA_SSHS USA_R34_NE USA_R34_SE USA_R34_SW USA_R34_NW USA_R50_NE USA_R50_SE USA_R50_SW USA_R50_NW USA_R64_NE USA_R64_SE USA_R64_SW USA_R64_NW USA_POCI USA_ROCI USA_RMW USA_EYE TOKYO_LAT TOKYO_LON TOKYO_GRADE TOKYO_WIND TOKYO_PRES TOKYO_R50_DIR TOKYO_R50_LONG TOKYO_R50_SHORT TOKYO_R30_DIR TOKYO_R30_LONG TOKYO_R30_SHORT TOKYO_LAND CMA_LAT CMA_LON CMA_CAT CMA_WIND CMA_PRES HKO_LAT HKO_LON HKO_CAT HKO_WIND HKO_PRES NEWDELHI_LAT NEWDELHI_LON NEWDELHI_GRADE NEWDELHI_WIND NEWDELHI_PRES NEWDELHI_CI NEWDELHI_DP NEWDELHI_POCI REUNION_LAT REUNION_LON REUNION_TYPE REUNION_WIND REUNION_PRES REUNION_TNUM REUNION_CI REUNION_RMW REUNION_R34_NE REUNION_R34_SE REUNION_R34_SW REUNION_R34_NW REUNION_R50_NE REUNION_R50_SE REUNION_R50_SW REUNION_R50_NW REUNION_R64_NE REUNION_R64_SE REUNION_R64_SW REUNION_R64_NW BOM_LAT BOM_LON BOM_TYPE BOM_WIND BOM_PRES BOM_TNUM BOM_CI BOM_RMW BOM_R34_NE BOM_R34_SE BOM_R34_SW BOM_R34_NW BOM_R50_NE BOM_R50_SE BOM_R50_SW BOM_R50_NW BOM_R64_NE BOM_R64_SE BOM_R64_SW BOM_R64_NW BOM_ROCI BOM_POCI BOM_EYE BOM_POS_METHOD BOM_PRES_METHOD NADI_LAT NADI_LON NADI_CAT NADI_WIND NADI_PRES WELLINGTON_LAT WELLINGTON_LON WELLINGTON_WIND WELLINGTON_PRES DS824_LAT DS824_LON DS824_STAGE DS824_WIND DS824_PRES TD9636_LAT TD9636_LON TD9636_STAGE TD9636_WIND TD9636_PRES TD9635_LAT TD9635_LON TD9635_WIND TD9635_PRES TD9635_ROCI NEUMANN_LAT NEUMANN_LON NEUMANN_CLASS NEUMANN_WIND NEUMANN_PRES MLC_LAT MLC_LON MLC_CLASS MLC_WIND MLC_PRES USA_GUST BOM_GUST BOM_GUST_PER REUNION_GUST REUNION_GUST_PER USA_SEAHGT USA_SEARAD_NE USA_SEARAD_SE USA_SEARAD_SW USA_SEARAD_NW STORM_SPEED STORM_DIR
1909253N24138 1909 47 WP MM NOT_NAMED 1909-09-09 16:00:00 NR 23.6000 137.600 main 1063 995 __________O___ -1 23.6000 137.600 7 27 283
1909253N24138 1909 47 WP MM NOT_NAMED 1909-09-09 18:00:00 NR 23.7966 136.652 main 995 893 __________P___ -1 23.7966 136.652 7 26 282
1909253N24138 1909 47 WP MM NOT_NAMED 1909-09-09 21:00:00 NR 24.0675 135.287 main 893 819 __________P___ -1 24.0675 135.287 7 24 282
1909253N24138 1909 47 WP MM NOT_NAMED 1909-09-10 00:00:00 NR 24.2938 134.082 main 819 763 __________P___ -1 24.2938 134.082 7 20 281
1909253N24138 1909 47 WP MM NOT_NAMED 1909-09-10 03:00:00 NR 24.4602 133.139 main 763 757 __________P___ -1 24.4602 133.139 7 16 281
1909253N24138 1909 47 WP MM NOT_NAMED 1909-09-10 04:00:00 NR 24.5000 132.900 main 757 736 __________O___ -1 24.5000 132.900 3 11 280
1909253N24138 1909 47 WP MM NOT_NAMED 1909-09-10 06:00:00 NR 24.5553 132.548 main 736 731 __________P___ -1 24.5553 132.548 3 7 279
1909253N24138 1909 47 WP MM NOT_NAMED 1909-09-10 09:00:00 NR 24.5921 132.274 main 731 729 __________P___ -1 24.5921 132.274 3 3 278
1909253N24138 1909 47 WP MM NOT_NAMED 1909-09-10 12:00:00 NR 24.5975 132.199 main 729 729 __________P___ -1 24.5975 132.199 3 1 274
1909253N24138 1909 47 WP MM NOT_NAMED 1909-09-10 15:00:00 NR 24.5971 132.202 main 729 729 __________P___ -1 24.5971 132.202 3 0 0
1909253N24138 1909 47 WP MM NOT_NAMED 1909-09-10 16:00:00 NR 24.6000 132.200 main 729 727 __________O___ -1 24.6000 132.200 4 2 292
1909253N24138 1909 47 WP MM NOT_NAMED 1909-09-10 18:00:00 NR 24.6301 132.111 main 727 714 __________P___ -1 24.6301 132.111 4 3 293
1909253N24138 1909 47 WP MM NOT_NAMED 1909-09-10 21:00:00 NR 24.6818 131.989 main 714 713 __________P___ -1 24.6818 131.989 4 2 296
1909253N24138 1909 47 WP MM NOT_NAMED 1909-09-11 00:00:00 NR 24.7356 131.872 main 713 699 __________P___ -1 24.7356 131.872 4 2 295
1909253N24138 1909 47 WP MM NOT_NAMED 1909-09-11 03:00:00 NR 24.7854 131.746 main 699 699 __________P___ -1 24.7854 131.746 4 3 292
1909253N24138 1909 47 WP MM NOT_NAMED 1909-09-11 04:00:00 NR 24.8000 131.700 main 699 697 __________O___ -1 24.8000 131.700 4 3 285
1909253N24138 1909 47 WP MM NOT_NAMED 1909-09-11 06:00:00 NR 24.8197 131.600 main 697 695 __________P___ -1 24.8197 131.600 4 3 280
1909253N24138 1909 47 WP MM NOT_NAMED 1909-09-11 09:00:00 NR 24.8429 131.437 main 695 683 __________P___ -1 24.8429 131.437 4 3 278
1909253N24138 1909 47 WP MM NOT_NAMED 1909-09-11 12:00:00 NR 24.8641 131.260 main 683 682 __________P___ -1 24.8641 131.260 4 3 278
1909253N24138 1909 47 WP MM NOT_NAMED 1909-09-11 15:00:00 NR 24.8895 131.067 main 682 681 __________P___ -1 24.8895 131.067 4 4 279
1909253N24138 1909 47 WP MM NOT_NAMED 1909-09-11 16:00:00 NR 24.9000 131.000 main 681 681 __________O___ -1 24.9000 131.000 4 4 282
1909253N24138 1909 47 WP MM NOT_NAMED 1909-09-11 18:00:00 NR 24.9303 130.859 main 681 669 __________P___ -1 24.9303 130.859 4 4 284
1909253N24138 1909 47 WP MM NOT_NAMED 1909-09-11 21:00:00 NR 24.9820 130.634 main 669 669 __________P___ -1 24.9820 130.634 4 4 284
1909253N24138 1909 47 WP MM NOT_NAMED 1909-09-12 00:00:00 NR 25.0358 130.403 main 670 659 __________P___ -1 25.0358 130.403 4 4 284
1909253N24138 1909 47 WP MM NOT_NAMED 1909-09-12 03:00:00 NR 25.0855 130.174 main 660 660 __________P___ -1 25.0855 130.174 4 4 283
1909253N24138 1909 47 WP MM NOT_NAMED 1909-09-12 04:00:00 NR 25.1000 130.100 main 661 661 __________O___ -1 25.1000 130.100 4 4 281
1909253N24138 1909 47 WP MM NOT_NAMED 1909-09-12 06:00:00 NR 25.1223 129.956 main 662 663 __________P___ -1 25.1223 129.956 4 4 279
1909253N24138 1909 47 WP MM NOT_NAMED 1909-09-12 09:00:00 NR 25.1496 129.745 main 665 654 __________P___ -1 25.1496 129.745 4 4 278
1909253N24138 1909 47 WP MM NOT_NAMED 1909-09-12 12:00:00 NR 25.1721 129.545 main 658 658 __________P___ -1 25.1721 129.545 4 4 277
1909253N24138 1909 47 WP MM NOT_NAMED 1909-09-12 15:00:00 NR 25.1929 129.359 main 659 661 __________P___ -1 25.1929 129.359 4 3 277
1909253N24138 1909 47 WP MM NOT_NAMED 1909-09-12 16:00:00 NR 25.2000 129.300 main 661 661 __________O___ -1 25.2000 129.300 4 3 281
1909253N24138 1909 47 WP MM NOT_NAMED 1909-09-12 18:00:00 NR 25.2189 129.215 main 664 664 __________P___ -1 25.2189 129.215 4 2 285
1909253N24138 1909 47 WP MM NOT_NAMED 1909-09-12 21:00:00 NR 25.2475 129.100 main 666 655 __________P___ -1 25.2475 129.100 4 2 284
1909253N24138 1909 47 WP MM NOT_NAMED 1909-09-13 00:00:00 NR 25.2737 128.968 main 657 657 __________P___ -1 25.2737 128.968 4 3 279
1909253N24138 1909 47 WP MM NOT_NAMED 1909-09-13 03:00:00 NR 25.2947 128.781 main 662 662 __________P___ -1 25.2947 128.781 4 4 276
1909253N24138 1909 47 WP MM NOT_NAMED 1909-09-13 04:00:00 NR 25.3000 128.700 main 665 654 __________O___ -1 25.3000 128.700 4 5 272
1909253N24138 1909 47 WP MM NOT_NAMED 1909-09-13 06:00:00 NR 25.3033 128.496 main 654 614 __________P___ -1 25.3033 128.496 4 6 270
1909253N24138 1909 47 WP MM NOT_NAMED 1909-09-13 09:00:00 NR 25.3016 128.126 main 614 574 __________P___ -1 25.3016 128.126 4 7 270
1909253N24138 1909 47 WP MM NOT_NAMED 1909-09-13 12:00:00 NR 25.2977 127.703 main 574 534 __________P___ -1 25.2977 127.703 4 8 270
1909253N24138 1909 47 WP MM NOT_NAMED 1909-09-13 15:00:00 NR 25.2979 127.252 main 534 514 __________P___ -1 25.2979 127.252 4 8 270
1909253N24138 1909 47 WP MM NOT_NAMED 1909-09-13 16:00:00 NR 25.3000 127.100 main 514 493 __________O___ -1 25.3000 127.100 4 7 272
1909253N24138 1909 47 WP MM NOT_NAMED 1909-09-13 18:00:00 NR 25.3123 126.851 main 493 453 __________P___ -1 25.3123 126.851 4 7 274
1909253N24138 1909 47 WP MM NOT_NAMED 1909-09-13 21:00:00 NR 25.3376 126.465 main 453 404 __________P___ -1 25.3376 126.465 4 7 274
1909253N24138 1909 47 WP MM NOT_NAMED 1909-09-14 00:00:00 NR 25.3663 126.029 main 404 354 __________P___ -1 25.3663 126.029 4 9 274
1909253N24138 1909 47 WP MM NOT_NAMED 1909-09-14 03:00:00 NR 25.3927 125.503 main 354 334 __________P___ -1 25.3927 125.503 4 10 273
1909253N24138 1909 47 WP MM NOT_NAMED 1909-09-14 04:00:00 NR 25.4000 125.300 main 334 285 __________O___ -1 25.4000 125.300 4 12 272
1909253N24138 1909 47 WP MM NOT_NAMED 1909-09-14 06:00:00 NR 25.4138 124.849 main 285 215 __________P___ -1 25.4138 124.849 4 13 271
1909253N24138 1909 47 WP MM NOT_NAMED 1909-09-14 09:00:00 NR 25.4279 124.078 main 215 128 __________P___ -1 25.4279 124.078 4 15 271
1909253N24138 1909 47 WP MM NOT_NAMED 1909-09-14 12:00:00 NR 25.4288 123.221 main 128 53 __________P___ -1 25.4288 123.221 4 16 269
1909253N24138 1909 47 WP MM NOT_NAMED 1909-09-14 15:00:00 NR 25.4110 122.310 main 53 45 __________P___ -1 25.4110 122.310 4 17 269
1909253N24138 1909 47 WP MM NOT_NAMED 1909-09-14 16:00:00 NR 25.4000 122.000 main 44 22 __________O___ -1 25.4000 122.000 4 17 267
1909253N24138 1909 47 WP MM NOT_NAMED 1909-09-14 18:00:00 NR 25.3699 121.375 main 22 24 __________P___ -1 25.3699 121.375 4 17 266
1909253N24138 1909 47 WP MM NOT_NAMED 1909-09-14 21:00:00 NR 25.3068 120.428 main 69 10 __________P___ -1 25.3068 120.428 4 17 265
1909253N24138 1909 47 WP MM NOT_NAMED 1909-09-15 00:00:00 NR 25.2262 119.475 main 15 0 __________P___ -1 25.2262 119.475 4 17 264
1909253N24138 1909 47 WP MM NOT_NAMED 1909-09-15 03:00:00 NR 25.1330 118.519 main 0 0 __________P___ -1 25.1330 118.519 4 17 264
1909253N24138 1909 47 WP MM NOT_NAMED 1909-09-15 04:00:00 NR 25.1000 118.200 main 0 __________O___ -1 25.1000 118.200 4 17 263

Digital Typhoon Data and Search

About IBTrACS Database

This database is a web-friendly format of International Best Track Archive for Climate Stewardship (IBTrACS), a global best track data archive curated by NOAA dating back to 1842.

Updated: 2021-12-03